createdAt,value
2019-04-16T00:02:11.057Z,53.29
2019-04-16T00:04:59.980Z,53.33
2019-04-16T00:07:55.823Z,53.47
2019-04-16T00:10:38.541Z,53.63
2019-04-16T00:13:21.218Z,53.78
2019-04-16T00:15:52.633Z,53.73
2019-04-16T00:18:22.977Z,53.93
2019-04-16T00:21:10.879Z,54.10
2019-04-16T00:23:59.779Z,54.27
2019-04-16T00:26:29.933Z,54.29
2019-04-16T00:29:02.274Z,54.44
2019-04-16T00:31:34.332Z,54.45
2019-04-16T00:34:04.274Z,54.49
2019-04-16T00:36:34.039Z,54.67
2019-04-16T00:39:05.309Z,54.63
2019-04-16T00:41:35.835Z,54.69
2019-04-16T00:44:05.766Z,54.83
2019-04-16T00:46:35.962Z,54.65
2019-04-16T00:49:06.113Z,54.84
2019-04-16T00:51:36.005Z,54.82
2019-04-16T00:54:09.865Z,55.05
2019-04-16T00:56:37.607Z,55.11
2019-04-16T00:59:07.832Z,55.17
2019-04-16T01:01:37.670Z,55.41
2019-04-16T01:04:07.566Z,55.58
2019-04-16T01:06:37.905Z,55.53
2019-04-16T01:09:09.263Z,55.56
2019-04-16T01:11:39.220Z,55.66
2019-04-16T01:14:09.261Z,55.70
2019-04-16T01:16:39.226Z,55.55
2019-04-16T01:19:10.155Z,55.48
2019-04-16T01:21:44.625Z,55.69
2019-04-16T01:24:12.269Z,55.68
2019-04-16T01:26:42.079Z,56.12
2019-04-16T01:29:13.503Z,56.12
2019-04-16T01:31:52.012Z,56.00
2019-04-16T01:34:43.317Z,55.99
2019-04-16T01:37:25.444Z,56.32
2019-04-16T01:39:53.492Z,56.27
2019-04-16T01:42:24.267Z,56.30
2019-04-16T01:44:53.973Z,56.29
2019-04-16T01:47:23.828Z,56.85
2019-04-16T01:49:54.311Z,56.85
2019-04-16T01:52:24.300Z,56.80
2019-04-16T01:54:57.853Z,57.05
2019-04-16T01:57:28.391Z,57.00
2019-04-16T01:59:58.187Z,57.35
2019-04-16T02:02:28.096Z,57.23
2019-04-16T02:04:59.293Z,57.23
2019-04-16T02:07:29.061Z,57.01
2019-04-16T02:09:59.131Z,57.01
2019-04-16T02:12:29.072Z,57.21
2019-04-16T02:14:58.955Z,57.16
2019-04-16T02:17:28.825Z,57.24
2019-04-16T02:19:58.782Z,57.48
2019-04-16T02:22:30.556Z,57.63
2019-04-16T02:25:00.525Z,57.71
2019-04-16T02:27:30.401Z,57.71
2019-04-16T02:30:02.660Z,57.64
2019-04-16T02:32:33.332Z,57.57
2019-04-16T02:35:03.542Z,57.35
2019-04-16T02:37:36.326Z,57.72
2019-04-16T02:40:05.748Z,57.82
2019-04-16T02:42:36.694Z,57.94
2019-04-16T02:45:07.041Z,58.13
2019-04-16T02:47:41.785Z,58.11
2019-04-16T02:50:12.059Z,58.11
2019-04-16T02:52:52.358Z,58.39
2019-04-16T02:55:44.169Z,58.55
2019-04-16T02:58:17.594Z,58.43
2019-04-16T03:01:25.030Z,58.28
2019-04-16T03:03:59.858Z,58.40
2019-04-16T03:06:32.021Z,58.53
2019-04-16T03:09:01.803Z,58.35
2019-04-16T03:11:33.194Z,58.44
2019-04-16T03:14:03.286Z,58.53
2019-04-16T03:16:58.609Z,58.63
2019-04-16T03:19:32.654Z,58.65
2019-04-16T03:22:03.309Z,58.89
2019-04-16T03:24:33.642Z,59.14
2019-04-16T03:27:05.219Z,59.19
2019-04-16T03:29:35.696Z,59.17
2019-04-16T03:32:06.179Z,58.78
2019-04-16T03:34:36.702Z,59.05
2019-04-16T03:37:06.617Z,59.15
2019-04-16T03:39:36.495Z,59.12
2019-04-16T03:42:06.317Z,59.33
2019-04-16T03:44:37.307Z,59.12
2019-04-16T03:47:07.365Z,59.23
2019-04-16T03:49:37.221Z,59.35
2019-04-16T03:52:08.766Z,59.27
2019-04-16T03:54:38.709Z,59.71
2019-04-16T03:57:08.848Z,59.88
2019-04-16T03:59:40.046Z,59.59
2019-04-16T04:02:10.659Z,59.67
2019-04-16T04:04:40.421Z,59.59
2019-04-16T04:07:12.327Z,59.89
2019-04-16T04:09:43.394Z,60.02
2019-04-16T04:12:14.320Z,59.95
2019-04-16T04:14:44.661Z,59.97
2019-04-16T04:17:14.463Z,60.11
2019-04-16T04:19:46.242Z,60.37
2019-04-16T04:22:16.425Z,60.65
2019-04-16T04:24:46.668Z,60.52
2019-04-16T04:27:19.205Z,60.04
2019-04-16T04:29:48.572Z,60.31
2019-04-16T04:32:18.585Z,60.74
2019-04-16T04:34:49.584Z,60.73
2019-04-16T04:37:19.847Z,60.58
2019-04-16T04:39:50.099Z,60.22
2019-04-16T04:42:19.980Z,60.40
2019-04-16T04:44:49.910Z,60.39
2019-04-16T04:47:20.237Z,60.40
2019-04-16T04:49:50.449Z,60.21
2019-04-16T04:52:20.729Z,60.69
2019-04-16T04:54:51.375Z,60.58
2019-04-16T04:57:22.509Z,60.79
2019-04-16T04:59:53.387Z,60.73
2019-04-16T05:02:24.473Z,60.68
2019-04-16T05:04:59.889Z,60.45
2019-04-16T05:07:31.153Z,60.55
2019-04-16T05:10:01.054Z,60.67
2019-04-16T05:12:30.990Z,60.25
2019-04-16T05:15:03.754Z,60.20
2019-04-16T05:17:32.393Z,60.53
2019-04-16T05:20:02.311Z,60.74
2019-04-16T05:22:33.101Z,60.19
2019-04-16T05:25:03.730Z,59.86
2019-04-16T05:27:40.279Z,60.07
2019-04-16T05:30:07.145Z,59.78
2019-04-16T05:32:37.107Z,59.42
2019-04-16T05:35:10.156Z,58.73
2019-04-16T05:37:38.930Z,56.65
2019-04-16T05:40:10.079Z,53.91
2019-04-16T05:42:40.242Z,51.27
2019-04-16T05:45:10.186Z,49.51
2019-04-16T05:47:40.051Z,48.95
2019-04-16T05:50:10.562Z,48.48
2019-04-16T05:52:41.747Z,47.61
2019-04-16T05:55:30.705Z,47.45
2019-04-16T05:58:00.599Z,48.06
2019-04-16T06:00:38.319Z,48.91
2019-04-16T06:03:07.445Z,49.29
2019-04-16T06:05:37.559Z,50.99
2019-04-16T06:08:11.529Z,52.65
2019-04-16T06:10:41.623Z,53.52
2019-04-16T06:13:29.277Z,54.03
2019-04-16T06:16:14.568Z,54.11
2019-04-16T06:19:04.186Z,54.80
2019-04-16T06:21:56.454Z,54.75
2019-04-16T06:25:08.496Z,54.85
2019-04-16T06:27:51.254Z,54.69
2019-04-16T06:30:32.737Z,54.27
2019-04-16T06:33:04.539Z,54.48
2019-04-16T06:35:59.195Z,54.49
2019-04-16T06:38:32.767Z,54.28
2019-04-16T06:41:12.165Z,53.99
2019-04-16T06:43:44.870Z,53.98
2019-04-16T06:46:23.029Z,54.55
2019-04-16T06:49:17.751Z,54.87
2019-04-16T06:52:16.022Z,55.25
2019-04-16T06:55:03.673Z,55.43
2019-04-16T06:58:03.353Z,55.62
2019-04-16T07:00:52.060Z,55.54
2019-04-16T07:03:47.123Z,55.42
2019-04-16T07:06:36.302Z,55.55
2019-04-16T07:09:41.101Z,55.56
2019-04-16T07:12:07.860Z,55.19
2019-04-16T07:14:38.333Z,55.17
2019-04-16T07:17:08.366Z,54.92
2019-04-16T07:19:39.447Z,55.08
2019-04-16T07:22:10.143Z,55.30
2019-04-16T07:24:40.359Z,55.67
2019-04-16T07:27:10.282Z,55.76
2019-04-16T07:29:50.133Z,55.52
2019-04-16T07:32:30.411Z,55.12
2019-04-16T07:35:07.983Z,55.12
2019-04-16T07:37:56.715Z,54.87
2019-04-16T07:40:51.357Z,54.67
2019-04-16T07:43:39.222Z,54.42
2019-04-16T07:46:37.455Z,54.07
2019-04-16T07:49:32.646Z,54.19
2019-04-16T07:52:17.851Z,54.08
2019-04-16T07:55:05.328Z,54.16
2019-04-16T07:57:35.212Z,53.98
2019-04-16T08:00:09.503Z,53.83
2019-04-16T08:02:37.967Z,53.58
2019-04-16T08:05:09.584Z,53.33
2019-04-16T08:07:39.634Z,52.69
2019-04-16T08:10:09.736Z,52.49
2019-04-16T08:12:42.213Z,52.28
2019-04-16T08:15:15.219Z,52.33
2019-04-16T08:17:44.126Z,52.27
2019-04-16T08:20:14.433Z,52.38
2019-04-16T08:22:47.193Z,52.21
2019-04-16T08:25:19.219Z,51.91
2019-04-16T08:27:50.743Z,51.85
2019-04-16T08:30:20.799Z,51.91
2019-04-16T08:32:50.739Z,51.88
2019-04-16T08:35:20.685Z,51.69
2019-04-16T08:37:50.623Z,51.67
2019-04-16T08:40:20.583Z,51.66
2019-04-16T08:42:50.589Z,51.50
2019-04-16T08:45:20.967Z,51.32
2019-04-16T08:47:50.824Z,50.99
2019-04-16T08:50:25.809Z,50.77
2019-04-16T08:52:52.826Z,50.75
2019-04-16T08:55:23.690Z,50.70
2019-04-16T08:57:55.186Z,50.68
2019-04-16T09:00:26.195Z,50.44
2019-04-16T09:02:58.717Z,50.20
2019-04-16T09:05:27.723Z,50.04
2019-04-16T09:08:12.610Z,49.48
2019-04-16T09:10:35.449Z,49.72
2019-04-16T09:13:07.332Z,49.56
2019-04-16T09:15:38.025Z,49.78
2019-04-16T09:18:17.700Z,49.42
2019-04-16T09:20:47.634Z,49.17
2019-04-16T09:23:17.569Z,49.11
2019-04-16T09:26:23.537Z,49.02
2019-04-16T09:29:08.131Z,48.83
2019-04-16T09:31:55.326Z,48.90
2019-04-16T09:34:43.106Z,48.94
2019-04-16T09:37:28.714Z,48.69
2019-04-16T09:40:18.527Z,48.33
2019-04-16T09:42:48.928Z,48.16
2019-04-16T09:45:19.603Z,47.97
2019-04-16T09:47:49.619Z,47.89
2019-04-16T09:50:19.381Z,48.00
2019-04-16T09:52:49.270Z,47.91
2019-04-16T09:55:19.660Z,47.65
2019-04-16T09:57:49.777Z,47.22
2019-04-16T10:00:24.369Z,47.06
2019-04-16T10:02:55.143Z,47.51
2019-04-16T10:05:26.504Z,41.44
2019-04-16T10:07:57.193Z,47.49
2019-04-16T10:10:27.947Z,46.93
2019-04-16T10:12:59.445Z,46.36
2019-04-16T10:15:29.497Z,46.17
2019-04-16T10:18:01.503Z,46.21
2019-04-16T10:20:31.132Z,46.49
2019-04-16T10:23:03.120Z,46.41
2019-04-16T10:25:33.766Z,46.36
2019-04-16T10:28:12.428Z,46.21
2019-04-16T10:30:46.885Z,45.81
2019-04-16T10:33:15.918Z,46.37
2019-04-16T10:35:45.887Z,40.94
2019-04-16T10:38:28.223Z,46.30
2019-04-16T10:41:07.775Z,46.19
2019-04-16T10:43:45.714Z,46.22
2019-04-16T10:46:34.891Z,46.04
2019-04-16T10:49:10.190Z,46.21
2019-04-16T10:51:50.524Z,46.14
2019-04-16T10:54:57.723Z,46.24
2019-04-16T10:57:38.495Z,45.81
2019-04-16T11:00:50.293Z,45.71
2019-04-16T11:03:34.491Z,45.61
2019-04-16T11:06:14.092Z,45.36
2019-04-16T11:08:44.073Z,45.96
2019-04-16T11:11:13.903Z,46.01
2019-04-16T11:13:58.888Z,45.90
2019-04-16T11:16:18.846Z,44.96
2019-04-16T11:18:49.104Z,45.21
2019-04-16T11:21:19.174Z,45.35
2019-04-16T11:23:50.238Z,45.31
2019-04-16T11:26:20.345Z,45.77
2019-04-16T11:28:50.247Z,46.09
2019-04-16T11:31:21.453Z,45.68
2019-04-16T11:33:51.487Z,45.53
2019-04-16T11:36:21.715Z,45.56
2019-04-16T11:38:51.795Z,45.10
2019-04-16T11:41:21.704Z,45.45
2019-04-16T11:43:51.590Z,44.82
2019-04-16T11:46:21.968Z,44.74
2019-04-16T11:48:51.841Z,44.62
2019-04-16T11:51:21.927Z,44.20
2019-04-16T11:53:51.736Z,44.01
2019-04-16T11:56:22.657Z,44.29
2019-04-16T11:58:52.929Z,44.49
2019-04-16T12:02:00.229Z,43.93
2019-04-16T12:04:47.828Z,43.85
2019-04-16T12:07:21.662Z,43.50
2019-04-16T12:10:09.848Z,43.72
2019-04-16T12:13:07.717Z,43.42
2019-04-16T12:15:58.020Z,43.70
2019-04-16T12:18:32.316Z,43.48
2019-04-16T12:21:06.283Z,43.59
2019-04-16T12:24:01.284Z,34.58
2019-04-16T12:26:50.386Z,43.77
2019-04-16T12:29:30.645Z,43.41
2019-04-16T12:32:08.976Z,43.98
2019-04-16T12:35:01.638Z,43.65
2019-04-16T12:37:49.490Z,43.43
2019-04-16T12:40:28.066Z,43.25
2019-04-16T12:43:14.715Z,43.54
2019-04-16T12:45:53.417Z,44.05
2019-04-16T12:48:37.819Z,44.00
2019-04-16T12:51:41.819Z,43.51
2019-04-16T12:54:29.544Z,43.79
2019-04-16T12:57:16.694Z,43.25
2019-04-16T13:00:26.119Z,43.87
2019-04-16T13:03:10.630Z,44.23
2019-04-16T13:06:01.383Z,43.64
2019-04-16T13:08:53.674Z,43.20
2019-04-16T13:11:36.461Z,43.71
2019-04-16T13:14:24.283Z,43.25
2019-04-16T13:17:04.375Z,42.91
2019-04-16T13:19:53.347Z,43.04
2019-04-16T13:22:27.142Z,43.30
2019-04-16T13:25:05.915Z,43.53
2019-04-16T13:27:37.701Z,43.16
2019-04-16T13:30:09.089Z,43.26
2019-04-16T13:32:39.187Z,43.51
2019-04-16T13:35:09.363Z,43.45
2019-04-16T13:37:39.251Z,43.14
2019-04-16T13:40:15.668Z,43.65
2019-04-16T13:42:45.779Z,43.26
2019-04-16T13:45:25.947Z,43.68
2019-04-16T13:47:55.724Z,42.76
2019-04-16T13:50:40.459Z,42.55
2019-04-16T13:53:28.223Z,43.14
2019-04-16T13:56:17.443Z,42.93
2019-04-16T13:58:56.131Z,42.94
2019-04-16T14:01:29.683Z,42.88
2019-04-16T14:03:59.553Z,43.17
2019-04-16T14:06:29.547Z,43.30
2019-04-16T14:08:59.572Z,42.71
2019-04-16T14:11:29.710Z,42.60
2019-04-16T14:13:59.655Z,42.64
2019-04-16T14:16:29.590Z,42.95
2019-04-16T14:19:02.524Z,42.59
2019-04-16T14:21:32.490Z,42.75
2019-04-16T14:24:02.650Z,42.78
2019-04-16T14:26:32.814Z,43.02
2019-04-16T14:29:05.941Z,42.92
2019-04-16T14:31:34.544Z,42.61
2019-04-16T14:34:36.802Z,42.77
2019-04-16T14:37:11.398Z,42.76
2019-04-16T14:39:44.357Z,42.54
2019-04-16T14:42:15.178Z,43.09
2019-04-16T14:44:49.128Z,42.82
2019-04-16T14:47:19.010Z,42.95
2019-04-16T14:49:50.844Z,42.76
2019-04-16T14:52:20.508Z,42.13
2019-04-16T14:54:57.861Z,42.60
2019-04-16T14:57:27.882Z,42.82
2019-04-16T15:00:16.405Z,42.87
2019-04-16T15:02:51.537Z,42.81
2019-04-16T15:05:39.483Z,42.93
2019-04-16T15:08:31.337Z,42.87
2019-04-16T15:11:31.172Z,42.77
2019-04-16T15:14:08.698Z,42.85
2019-04-16T15:16:43.073Z,43.04
2019-04-16T15:19:29.825Z,43.00
2019-04-16T15:22:23.034Z,35.08
2019-04-16T15:25:07.531Z,42.71
2019-04-16T15:27:55.162Z,42.82
2019-04-16T15:30:43.568Z,42.79
2019-04-16T15:33:50.736Z,43.06
2019-04-16T15:36:30.988Z,43.08
2019-04-16T15:39:10.000Z,43.10
2019-04-16T15:41:46.739Z,42.94
2019-04-16T15:44:23.670Z,43.16
2019-04-16T15:47:14.292Z,43.44
2019-04-16T15:50:00.041Z,43.54
2019-04-16T15:53:07.741Z,42.56
2019-04-16T15:56:12.062Z,42.31
2019-04-16T15:58:49.580Z,42.94
2019-04-16T16:01:50.579Z,43.29
2019-04-16T16:04:35.779Z,42.72
2019-04-16T16:07:11.921Z,42.83
2019-04-16T16:09:59.681Z,43.02
2019-04-16T16:12:31.544Z,42.38
2019-04-16T16:15:02.157Z,42.85
2019-04-16T16:17:33.600Z,43.12
2019-04-16T16:20:03.735Z,43.10
2019-04-16T16:22:33.545Z,43.02
2019-04-16T16:25:05.867Z,42.84
2019-04-16T16:27:35.058Z,42.70
2019-04-16T16:30:06.143Z,43.08
2019-04-16T16:32:36.040Z,42.87
2019-04-16T16:35:06.581Z,42.87
2019-04-16T16:37:37.522Z,42.88
2019-04-16T16:40:07.887Z,42.92
2019-04-16T16:42:38.080Z,42.94
2019-04-16T16:45:09.225Z,42.80
2019-04-16T16:47:40.565Z,43.05
2019-04-16T16:50:14.158Z,42.88
2019-04-16T16:53:01.140Z,42.41
2019-04-16T16:55:49.420Z,42.64
2019-04-16T16:58:41.519Z,42.75
2019-04-16T17:01:27.244Z,42.85
2019-04-16T17:04:07.155Z,42.83
2019-04-16T17:06:37.232Z,42.71
2019-04-16T17:09:09.011Z,42.95
2019-04-16T17:11:40.186Z,43.20
2019-04-16T17:14:10.721Z,43.30
2019-04-16T17:16:40.535Z,43.01
2019-04-16T17:19:10.323Z,43.30
2019-04-16T17:21:40.239Z,43.25
2019-04-16T17:24:13.282Z,43.42
2019-04-16T17:26:46.943Z,43.38
2019-04-16T17:29:16.923Z,43.64
2019-04-16T17:31:48.130Z,43.68
2019-04-16T17:34:18.333Z,43.65
2019-04-16T17:36:48.221Z,43.50
2019-04-16T17:39:33.024Z,43.59
2019-04-16T17:42:05.697Z,43.76
2019-04-16T17:44:55.085Z,38.14
2019-04-16T17:47:50.051Z,43.90
2019-04-16T17:50:30.478Z,43.78
2019-04-16T17:53:10.145Z,43.68
2019-04-16T17:55:58.046Z,43.82
2019-04-16T17:58:36.465Z,43.83
2019-04-16T18:01:24.397Z,44.07
2019-04-16T18:04:15.302Z,43.98
2019-04-16T18:06:59.994Z,43.93
2019-04-16T18:09:36.246Z,44.08
2019-04-16T18:12:35.071Z,44.21
2019-04-16T18:15:24.798Z,44.42
2019-04-16T18:18:02.490Z,44.24
2019-04-16T18:21:00.497Z,44.29
2019-04-16T18:23:48.630Z,44.33
2019-04-16T18:26:47.034Z,44.52
2019-04-16T18:29:21.551Z,44.29
2019-04-16T18:32:07.039Z,44.44
2019-04-16T18:34:55.507Z,39.83
2019-04-16T18:37:30.728Z,44.50
2019-04-16T18:40:22.498Z,44.53
2019-04-16T18:43:25.192Z,44.68
2019-04-16T18:46:15.299Z,44.80
2019-04-16T18:48:46.125Z,44.80
2019-04-16T18:51:15.915Z,44.92
2019-04-16T18:53:45.711Z,44.91
2019-04-16T18:56:15.687Z,44.91
2019-04-16T18:58:45.746Z,44.86
2019-04-16T19:01:24.610Z,45.07
2019-04-16T19:03:52.879Z,44.98
2019-04-16T19:06:22.816Z,45.03
2019-04-16T19:08:52.901Z,45.01
2019-04-16T19:11:22.880Z,45.12
2019-04-16T19:13:53.602Z,44.82
2019-04-16T19:16:23.522Z,45.00
2019-04-16T19:18:53.663Z,45.21
2019-04-16T19:21:23.764Z,44.98
2019-04-16T19:23:53.525Z,45.03
2019-04-16T19:26:23.519Z,45.03
2019-04-16T19:28:53.577Z,45.18
2019-04-16T19:31:25.060Z,45.26
2019-04-16T19:33:54.885Z,45.40
2019-04-16T19:36:27.564Z,45.45
2019-04-16T19:38:56.673Z,45.26
2019-04-16T19:41:26.793Z,45.25
2019-04-16T19:43:56.587Z,45.42
2019-04-16T19:46:26.473Z,45.31
2019-04-16T19:48:56.669Z,45.48
2019-04-16T19:51:27.778Z,45.70
2019-04-16T19:53:58.656Z,45.84
2019-04-16T19:56:28.657Z,45.87
2019-04-16T19:58:58.520Z,46.00
2019-04-16T20:01:28.369Z,46.22
2019-04-16T20:03:58.322Z,46.29
2019-04-16T20:06:28.265Z,46.35
2019-04-16T20:08:58.422Z,46.57
2019-04-16T20:11:28.431Z,46.72
2019-04-16T20:14:01.107Z,46.83
2019-04-16T20:16:30.247Z,46.97
2019-04-16T20:19:00.332Z,46.95
2019-04-16T20:21:30.349Z,46.98
2019-04-16T20:24:00.403Z,47.01
2019-04-16T20:26:32.654Z,47.01
2019-04-16T20:29:02.248Z,47.05
2019-04-16T20:31:33.283Z,47.16
2019-04-16T20:34:03.197Z,47.15
2019-04-16T20:36:33.110Z,47.23
2019-04-16T20:39:02.964Z,47.24
2019-04-16T20:41:34.474Z,47.23
2019-04-16T20:44:08.449Z,47.17
2019-04-16T20:46:36.121Z,47.22
2019-04-16T20:49:09.898Z,47.23
2019-04-16T20:51:37.691Z,47.16
2019-04-16T20:54:12.232Z,47.18
2019-04-16T20:56:40.644Z,47.16
2019-04-16T20:59:13.518Z,47.15
2019-04-16T21:01:43.543Z,47.03
2019-04-16T21:04:13.473Z,47.06
2019-04-16T21:06:43.444Z,47.18
2019-04-16T21:09:13.419Z,47.23
2019-04-16T21:11:43.276Z,47.27
2019-04-16T21:14:13.263Z,47.18
2019-04-16T21:16:43.200Z,47.22
2019-04-16T21:19:22.927Z,47.20
2019-04-16T21:21:44.982Z,47.27
2019-04-16T21:24:14.929Z,47.29
2019-04-16T21:26:45.226Z,47.24
2019-04-16T21:29:34.849Z,47.26
2019-04-16T21:32:09.868Z,47.32
2019-04-16T21:34:50.419Z,47.30
2019-04-16T21:37:38.369Z,47.14
2019-04-16T21:40:08.499Z,47.17
2019-04-16T21:42:38.866Z,47.18
2019-04-16T21:45:09.560Z,47.10
2019-04-16T21:47:39.440Z,46.94
2019-04-16T21:50:09.478Z,46.91
2019-04-16T21:52:39.319Z,46.86
2019-04-16T21:55:09.987Z,46.78
2019-04-16T21:57:42.853Z,46.73
2019-04-16T22:00:33.231Z,46.71
2019-04-16T22:03:09.166Z,46.70
2019-04-16T22:05:37.842Z,46.62
2019-04-16T22:08:07.831Z,46.68
2019-04-16T22:10:39.231Z,46.54
2019-04-16T22:13:09.322Z,46.64
2019-04-16T22:15:39.212Z,46.65
2019-04-16T22:18:10.057Z,46.71
2019-04-16T22:20:42.345Z,46.72
2019-04-16T22:23:11.907Z,46.63
2019-04-16T22:25:41.991Z,46.70
2019-04-16T22:28:12.985Z,46.71
2019-04-16T22:30:43.003Z,46.58
2019-04-16T22:33:12.919Z,46.61
2019-04-16T22:35:42.876Z,46.54
2019-04-16T22:38:14.510Z,46.35
2019-04-16T22:40:54.981Z,46.40
2019-04-16T22:43:43.543Z,46.41
2019-04-16T22:46:32.384Z,46.44
2019-04-16T22:49:02.583Z,46.42
2019-04-16T22:51:32.705Z,46.31
2019-04-16T22:54:02.821Z,46.40
2019-04-16T22:56:46.171Z,46.22
2019-04-16T22:59:15.964Z,46.07
2019-04-16T23:01:45.857Z,46.00
2019-04-16T23:04:15.802Z,45.96
2019-04-16T23:06:45.590Z,45.93
2019-04-16T23:09:17.009Z,45.94
2019-04-16T23:11:46.998Z,45.98
2019-04-16T23:14:17.738Z,46.05
2019-04-16T23:16:47.637Z,46.07
2019-04-16T23:19:20.192Z,46.17
2019-04-16T23:21:49.305Z,46.15
2019-04-16T23:24:22.842Z,46.24
2019-04-16T23:26:51.012Z,46.25
2019-04-16T23:29:20.994Z,46.27
2019-04-16T23:31:55.229Z,46.34
2019-04-16T23:34:22.480Z,46.30
2019-04-16T23:36:52.551Z,46.48
2019-04-16T23:39:22.605Z,46.62
2019-04-16T23:41:52.703Z,46.67
2019-04-16T23:44:41.734Z,46.79
2019-04-16T23:47:42.013Z,46.70
2019-04-16T23:50:26.125Z,46.71
2019-04-16T23:53:07.229Z,46.72
2019-04-16T23:55:49.005Z,46.54
2019-04-16T23:58:28.598Z,46.63
